Aérodrome :
LOGIN :

S'inscrire | Disclaimer

   EN    FR    IT 

 










Légende :    VFR   VFR Marginal   IFR   IFR Intensif   IFR Très Intensif
Visi : 
Plafond : 
>= 8 km
>= 3000ft
5 à 8 km
1000 à 3000 ft
1500m à 5 km
500 à 1000 ft
800 à 1500m
200 à 500 ft
< 800m
< 200 ft
Symboles :   Orages  Brouillard  Fortes neiges  Fortes précipitations  Vent > 20 kt
SIGMETs :   Divers  Orages  Givrage  Turbulence  Onde Orograph.  Cendres Volcan.







- Altitude de l'aérodrome : 93 ft
- Code IATA : XRY


LEJR - Jerez

DERNIER METAR :
  • 221730Z 27007KT 230V300 9000 FEW035 BKN040 20/15 Q1012

METARs EXPIRÉS :
  • 221700Z 28007KT 250V330 9000 FEW035 BKN040 20/15 Q1012
  • 221630Z 29011KT 250V330 9000 BKN040 20/15 Q1012
  • 221600Z 31014KT 250V350 9000 BKN038 20/15 Q1012
  • 221530Z 20007KT 160V280 9000 BKN038 23/14 Q1011
  • 221500Z 18008KT 150V220 9000 BKN038 24/16 Q1011

TAF TAF LEJR
Valide du 22 à 18h jusqu'au 23 à 18h UTC


221700Z 2218/2318 27010KT 9999 SCT040 TX25/2315Z TN14/2306Z
PROB40
TEMPO 2220/2303 4000 SHRA SCT035TCU
PROB30
TEMPO 2220/2303 3000 TSRA SCT030CB
BECMG 2221/2224 04005KT
TEMPO 2310/2313 18010KT
BECMG 2313/2315 27010KT
Pas de NOTAMs connus pour ce terrain.
2 SIGMETs publiés pour la FIR Madrid (LECM) :
 
Orages noyés dans la masse
LECM SIGMET 11 VALID 221800/222000 LEVA
LECM MADRID FIR/UIR EMBD TS OBS AT 1738Z WI N4331 W00621 - N42 W00644 - N4159 W00849 - N4334 W00815 - N4331 W00621 TOP FL360 MOV NNE 20KT NC=
Orages noyés dans la masse
LECM SIGMET 10 VALID 221715/221900 LEVA
LECM MADRID FIR/UIR EMBD TS OBS AT 1700Z WI N4315 W00705 - N4324 W00357 - N4230 W00105 - N4157 W00113 - N4315 W00705 TOP FL360 MOV NNE 20KT NC=



MET'MAP, la Météo Aéronautique d'un coup d'oeil ! - Copyright ORBIFLY Décembre 2007 - Disclaimer

ORBIFLY MET'MAP TEAM :

Programmation & Développement : Alexandra Zaïnal
Conception & Développement : Baudouin d'Aumeries
Co-Programmation & Développement : Marc-Olivier Méhu
Soutien technique & logistique : Manuel Goepfert

Contact : metmap@orbifly.com




SOURCES & CREDITS :

   NOAA